sensor_id;sensor_type;location;lat;lon;timestamp;P1;durP1;ratioP1;P2;durP2;ratioP2
48363;SDS011;34170;54.364;18.582;2024-03-08T00:00:13;50.50;;;22.85;;
48363;SDS011;34170;54.364;18.582;2024-03-08T00:03:04;53.75;;;23.45;;
48363;SDS011;34170;54.364;18.582;2024-03-08T00:05:31;56.25;;;24.90;;
48363;SDS011;34170;54.364;18.582;2024-03-08T00:07:59;50.80;;;23.13;;
48363;SDS011;34170;54.364;18.582;2024-03-08T00:10:27;50.97;;;23.30;;
48363;SDS011;34170;54.364;18.582;2024-03-08T00:12:56;57.50;;;25.90;;
48363;SDS011;34170;54.364;18.582;2024-03-08T00:15:24;58.78;;;24.85;;
48363;SDS011;34170;54.364;18.582;2024-03-08T00:17:52;56.50;;;26.67;;
48363;SDS011;34170;54.364;18.582;2024-03-08T00:20:20;61.53;;;29.70;;
48363;SDS011;34170;54.364;18.582;2024-03-08T00:22:48;59.65;;;26.55;;
48363;SDS011;34170;54.364;18.582;2024-03-08T00:25:16;59.78;;;28.58;;
48363;SDS011;34170;54.364;18.582;2024-03-08T00:27:43;57.88;;;25.88;;
48363;SDS011;34170;54.364;18.582;2024-03-08T00:30:11;57.70;;;26.23;;
48363;SDS011;34170;54.364;18.582;2024-03-08T00:32:42;64.07;;;26.92;;
48363;SDS011;34170;54.364;18.582;2024-03-08T00:35:10;53.05;;;24.00;;
48363;SDS011;34170;54.364;18.582;2024-03-08T00:37:40;44.92;;;21.30;;
48363;SDS011;34170;54.364;18.582;2024-03-08T00:40:14;49.25;;;22.83;;
48363;SDS011;34170;54.364;18.582;2024-03-08T00:42:42;45.72;;;21.38;;
48363;SDS011;34170;54.364;18.582;2024-03-08T00:45:10;52.47;;;22.73;;
48363;SDS011;34170;54.364;18.582;2024-03-08T00:47:39;46.17;;;20.88;;
48363;SDS011;34170;54.364;18.582;2024-03-08T00:50:06;42.72;;;20.85;;
48363;SDS011;34170;54.364;18.582;2024-03-08T00:52:36;45.22;;;19.98;;
48363;SDS011;34170;54.364;18.582;2024-03-08T00:55:04;47.65;;;21.15;;
48363;SDS011;34170;54.364;18.582;2024-03-08T00:57:32;47.58;;;21.33;;
48363;SDS011;34170;54.364;18.582;2024-03-08T01:00:02;44.42;;;21.25;;
48363;SDS011;34170;54.364;18.582;2024-03-08T01:02:31;45.60;;;19.98;;
48363;SDS011;34170;54.364;18.582;2024-03-08T01:05:00;46.90;;;20.58;;
48363;SDS011;34170;54.364;18.582;2024-03-08T01:07:29;45.95;;;19.88;;
48363;SDS011;34170;54.364;18.582;2024-03-08T01:09:57;43.75;;;19.73;;
48363;SDS011;34170;54.364;18.582;2024-03-08T01:12:25;42.15;;;18.27;;
48363;SDS011;34170;54.364;18.582;2024-03-08T01:14:53;44.25;;;20.02;;
48363;SDS011;34170;54.364;18.582;2024-03-08T01:17:20;40.25;;;19.65;;
48363;SDS011;34170;54.364;18.582;2024-03-08T01:19:48;46.83;;;20.05;;
48363;SDS011;34170;54.364;18.582;2024-03-08T01:22:16;41.55;;;19.38;;
48363;SDS011;34170;54.364;18.582;2024-03-08T01:24:43;48.22;;;22.33;;
48363;SDS011;34170;54.364;18.582;2024-03-08T01:27:11;48.80;;;22.42;;
48363;SDS011;34170;54.364;18.582;2024-03-08T01:29:39;47.65;;;21.52;;
48363;SDS011;34170;54.364;18.582;2024-03-08T01:32:07;46.10;;;22.52;;
48363;SDS011;34170;54.364;18.582;2024-03-08T01:34:35;47.97;;;21.52;;
48363;SDS011;34170;54.364;18.582;2024-03-08T01:37:02;34.90;;;17.33;;
48363;SDS011;34170;54.364;18.582;2024-03-08T01:39:30;35.65;;;17.70;;
48363;SDS011;34170;54.364;18.582;2024-03-08T01:41:59;42.13;;;19.83;;
48363;SDS011;34170;54.364;18.582;2024-03-08T01:44:28;44.50;;;18.73;;
48363;SDS011;34170;54.364;18.582;2024-03-08T01:46:55;42.63;;;19.15;;
48363;SDS011;34170;54.364;18.582;2024-03-08T01:49:23;38.65;;;18.55;;
48363;SDS011;34170;54.364;18.582;2024-03-08T01:51:54;28.73;;;14.02;;
48363;SDS011;34170;54.364;18.582;2024-03-08T01:54:23;36.42;;;17.05;;
48363;SDS011;34170;54.364;18.582;2024-03-08T01:56:51;46.22;;;17.90;;
48363;SDS011;34170;54.364;18.582;2024-03-08T01:59:20;38.22;;;17.65;;
48363;SDS011;34170;54.364;18.582;2024-03-08T02:01:48;42.03;;;18.80;;
48363;SDS011;34170;54.364;18.582;2024-03-08T02:04:15;37.88;;;17.45;;
48363;SDS011;34170;54.364;18.582;2024-03-08T02:06:43;36.97;;;17.27;;
48363;SDS011;34170;54.364;18.582;2024-03-08T02:09:12;36.67;;;17.02;;
48363;SDS011;34170;54.364;18.582;2024-03-08T02:11:42;40.38;;;17.48;;
48363;SDS011;34170;54.364;18.582;2024-03-08T02:14:10;42.13;;;17.20;;
48363;SDS011;34170;54.364;18.582;2024-03-08T02:16:38;33.55;;;16.40;;
48363;SDS011;34170;54.364;18.582;2024-03-08T02:19:06;36.45;;;16.73;;
48363;SDS011;34170;54.364;18.582;2024-03-08T02:21:37;36.23;;;16.90;;
48363;SDS011;34170;54.364;18.582;2024-03-08T02:24:04;41.88;;;19.77;;
48363;SDS011;34170;54.364;18.582;2024-03-08T02:26:33;50.25;;;20.45;;
48363;SDS011;34170;54.364;18.582;2024-03-08T02:29:01;40.58;;;18.52;;
48363;SDS011;34170;54.364;18.582;2024-03-08T02:31:29;36.40;;;18.40;;
48363;SDS011;34170;54.364;18.582;2024-03-08T02:33:56;37.05;;;16.77;;
48363;SDS011;34170;54.364;18.582;2024-03-08T02:36:24;40.22;;;17.40;;
48363;SDS011;34170;54.364;18.582;2024-03-08T02:38:52;42.63;;;20.15;;
48363;SDS011;34170;54.364;18.582;2024-03-08T02:41:20;38.03;;;17.58;;
48363;SDS011;34170;54.364;18.582;2024-03-08T02:43:47;34.88;;;17.10;;
48363;SDS011;34170;54.364;18.582;2024-03-08T02:46:15;36.97;;;16.33;;
48363;SDS011;34170;54.364;18.582;2024-03-08T02:48:42;37.13;;;15.95;;
48363;SDS011;34170;54.364;18.582;2024-03-08T02:51:10;37.38;;;17.55;;
48363;SDS011;34170;54.364;18.582;2024-03-08T02:53:38;38.55;;;17.92;;
48363;SDS011;34170;54.364;18.582;2024-03-08T02:56:05;40.33;;;18.77;;
48363;SDS011;34170;54.364;18.582;2024-03-08T03:01:05;38.92;;;18.42;;
48363;SDS011;34170;54.364;18.582;2024-03-08T03:03:32;38.67;;;17.25;;
48363;SDS011;34170;54.364;18.582;2024-03-08T03:06:00;45.28;;;18.92;;
48363;SDS011;34170;54.364;18.582;2024-03-08T03:08:28;44.35;;;20.13;;
48363;SDS011;34170;54.364;18.582;2024-03-08T03:10:55;43.38;;;19.67;;
48363;SDS011;34170;54.364;18.582;2024-03-08T03:13:24;42.08;;;19.95;;
48363;SDS011;34170;54.364;18.582;2024-03-08T03:15:51;43.63;;;19.92;;
48363;SDS011;34170;54.364;18.582;2024-03-08T03:18:19;40.65;;;18.10;;
48363;SDS011;34170;54.364;18.582;2024-03-08T03:20:49;41.95;;;18.60;;
48363;SDS011;34170;54.364;18.582;2024-03-08T03:23:16;39.28;;;17.77;;
48363;SDS011;34170;54.364;18.582;2024-03-08T03:25:48;36.47;;;17.15;;
48363;SDS011;34170;54.364;18.582;2024-03-08T03:28:15;36.03;;;17.15;;
48363;SDS011;34170;54.364;18.582;2024-03-08T03:30:45;35.15;;;15.27;;
48363;SDS011;34170;54.364;18.582;2024-03-08T03:33:14;32.30;;;13.88;;
48363;SDS011;34170;54.364;18.582;2024-03-08T03:35:44;38.08;;;17.67;;
48363;SDS011;34170;54.364;18.582;2024-03-08T03:38:12;45.97;;;19.98;;
48363;SDS011;34170;54.364;18.582;2024-03-08T03:40:41;46.08;;;22.33;;
48363;SDS011;34170;54.364;18.582;2024-03-08T03:43:09;46.78;;;21.48;;
48363;SDS011;34170;54.364;18.582;2024-03-08T03:45:39;40.90;;;20.23;;
48363;SDS011;34170;54.364;18.582;2024-03-08T03:48:09;52.65;;;23.77;;
48363;SDS011;34170;54.364;18.582;2024-03-08T03:50:38;58.90;;;26.23;;
48363;SDS011;34170;54.364;18.582;2024-03-08T03:53:07;55.80;;;25.40;;
48363;SDS011;34170;54.364;18.582;2024-03-08T03:55:37;60.22;;;25.45;;
48363;SDS011;34170;54.364;18.582;2024-03-08T03:58:07;61.80;;;28.00;;
48363;SDS011;34170;54.364;18.582;2024-03-08T04:00:38;60.97;;;27.17;;
48363;SDS011;34170;54.364;18.582;2024-03-08T04:03:06;60.90;;;28.42;;
48363;SDS011;34170;54.364;18.582;2024-03-08T04:05:36;56.35;;;26.30;;
48363;SDS011;34170;54.364;18.582;2024-03-08T04:08:04;70.70;;;29.27;;
48363;SDS011;34170;54.364;18.582;2024-03-08T04:10:32;62.60;;;29.23;;
48363;SDS011;34170;54.364;18.582;2024-03-08T04:12:59;68.95;;;31.52;;
48363;SDS011;34170;54.364;18.582;2024-03-08T04:15:27;62.50;;;28.90;;
48363;SDS011;34170;54.364;18.582;2024-03-08T04:17:55;60.70;;;27.90;;
48363;SDS011;34170;54.364;18.582;2024-03-08T04:20:22;62.17;;;28.85;;
48363;SDS011;34170;54.364;18.582;2024-03-08T04:22:50;66.70;;;29.15;;
48363;SDS011;34170;54.364;18.582;2024-03-08T04:25:17;64.22;;;29.25;;
48363;SDS011;34170;54.364;18.582;2024-03-08T04:27:45;66.38;;;29.38;;
48363;SDS011;34170;54.364;18.582;2024-03-08T04:30:14;60.75;;;27.38;;
48363;SDS011;34170;54.364;18.582;2024-03-08T04:32:42;66.40;;;30.02;;
48363;SDS011;34170;54.364;18.582;2024-03-08T04:35:10;66.35;;;29.45;;
48363;SDS011;34170;54.364;18.582;2024-03-08T04:37:40;68.22;;;28.42;;
48363;SDS011;34170;54.364;18.582;2024-03-08T04:40:08;64.72;;;27.58;;
48363;SDS011;34170;54.364;18.582;2024-03-08T04:42:36;67.07;;;27.98;;
48363;SDS011;34170;54.364;18.582;2024-03-08T04:45:05;58.25;;;25.25;;
48363;SDS011;34170;54.364;18.582;2024-03-08T04:47:35;68.53;;;28.52;;
48363;SDS011;34170;54.364;18.582;2024-03-08T04:50:04;61.83;;;26.70;;
48363;SDS011;34170;54.364;18.582;2024-03-08T04:52:32;60.90;;;26.65;;
48363;SDS011;34170;54.364;18.582;2024-03-08T04:55:00;65.18;;;26.92;;
48363;SDS011;34170;54.364;18.582;2024-03-08T04:57:28;66.18;;;27.25;;
48363;SDS011;34170;54.364;18.582;2024-03-08T04:59:56;63.47;;;27.13;;
48363;SDS011;34170;54.364;18.582;2024-03-08T05:02:25;69.82;;;27.98;;
48363;SDS011;34170;54.364;18.582;2024-03-08T05:04:53;60.50;;;24.63;;
48363;SDS011;34170;54.364;18.582;2024-03-08T05:07:20;64.43;;;27.73;;
48363;SDS011;34170;54.364;18.582;2024-03-08T05:09:48;54.80;;;25.02;;
48363;SDS011;34170;54.364;18.582;2024-03-08T05:12:19;65.28;;;26.50;;
48363;SDS011;34170;54.364;18.582;2024-03-08T05:14:47;63.10;;;25.55;;
48363;SDS011;34170;54.364;18.582;2024-03-08T05:17:17;58.10;;;24.60;;
48363;SDS011;34170;54.364;18.582;2024-03-08T05:19:45;59.95;;;25.27;;
48363;SDS011;34170;54.364;18.582;2024-03-08T05:22:12;60.08;;;25.20;;
48363;SDS011;34170;54.364;18.582;2024-03-08T05:24:41;57.78;;;25.60;;
48363;SDS011;34170;54.364;18.582;2024-03-08T05:27:08;60.40;;;25.15;;
48363;SDS011;34170;54.364;18.582;2024-03-08T05:29:36;63.78;;;25.85;;
48363;SDS011;34170;54.364;18.582;2024-03-08T05:32:05;63.85;;;26.73;;
48363;SDS011;34170;54.364;18.582;2024-03-08T05:34:34;63.28;;;24.88;;
48363;SDS011;34170;54.364;18.582;2024-03-08T05:37:01;59.53;;;25.60;;
48363;SDS011;34170;54.364;18.582;2024-03-08T05:39:30;56.58;;;24.45;;
48363;SDS011;34170;54.364;18.582;2024-03-08T05:41:57;62.33;;;24.88;;
48363;SDS011;34170;54.364;18.582;2024-03-08T05:44:25;61.17;;;26.10;;
48363;SDS011;34170;54.364;18.582;2024-03-08T05:46:55;65.40;;;25.48;;
48363;SDS011;34170;54.364;18.582;2024-03-08T05:49:23;62.05;;;26.75;;
48363;SDS011;34170;54.364;18.582;2024-03-08T05:51:52;63.25;;;27.02;;
48363;SDS011;34170;54.364;18.582;2024-03-08T05:54:21;58.92;;;24.92;;
48363;SDS011;34170;54.364;18.582;2024-03-08T05:56:52;59.47;;;25.55;;
48363;SDS011;34170;54.364;18.582;2024-03-08T05:59:20;55.08;;;24.88;;
48363;SDS011;34170;54.364;18.582;2024-03-08T06:01:50;48.03;;;22.50;;
48363;SDS011;34170;54.364;18.582;2024-03-08T06:04:18;42.97;;;21.15;;
48363;SDS011;34170;54.364;18.582;2024-03-08T06:06:46;36.92;;;16.58;;
48363;SDS011;34170;54.364;18.582;2024-03-08T06:09:18;27.63;;;13.35;;
48363;SDS011;34170;54.364;18.582;2024-03-08T06:11:51;25.00;;;11.40;;
48363;SDS011;34170;54.364;18.582;2024-03-08T06:14:21;22.75;;;11.50;;
48363;SDS011;34170;54.364;18.582;2024-03-08T06:16:50;22.85;;;11.40;;
48363;SDS011;34170;54.364;18.582;2024-03-08T06:19:18;19.08;;;10.48;;
48363;SDS011;34170;54.364;18.582;2024-03-08T06:21:45;19.25;;;9.98;;
48363;SDS011;34170;54.364;18.582;2024-03-08T06:24:13;18.17;;;9.13;;
48363;SDS011;34170;54.364;18.582;2024-03-08T06:26:42;16.95;;;9.05;;
48363;SDS011;34170;54.364;18.582;2024-03-08T06:29:10;19.17;;;8.57;;
48363;SDS011;34170;54.364;18.582;2024-03-08T06:31:39;19.83;;;9.15;;
48363;SDS011;34170;54.364;18.582;2024-03-08T06:34:08;16.02;;;8.63;;
48363;SDS011;34170;54.364;18.582;2024-03-08T06:36:36;16.60;;;8.88;;
48363;SDS011;34170;54.364;18.582;2024-03-08T06:39:05;13.60;;;8.27;;
48363;SDS011;34170;54.364;18.582;2024-03-08T06:41:37;13.38;;;7.95;;
48363;SDS011;34170;54.364;18.582;2024-03-08T06:44:05;14.55;;;8.35;;
48363;SDS011;34170;54.364;18.582;2024-03-08T06:46:35;20.02;;;8.45;;
48363;SDS011;34170;54.364;18.582;2024-03-08T06:49:03;14.35;;;7.85;;
48363;SDS011;34170;54.364;18.582;2024-03-08T06:51:30;13.13;;;7.25;;
48363;SDS011;34170;54.364;18.582;2024-03-08T06:53:58;13.18;;;7.70;;
48363;SDS011;34170;54.364;18.582;2024-03-08T06:56:26;13.38;;;6.72;;
48363;SDS011;34170;54.364;18.582;2024-03-08T06:58:53;15.00;;;8.27;;
48363;SDS011;34170;54.364;18.582;2024-03-08T07:01:22;12.20;;;7.72;;
48363;SDS011;34170;54.364;18.582;2024-03-08T07:03:50;15.88;;;6.95;;
48363;SDS011;34170;54.364;18.582;2024-03-08T07:06:19;14.70;;;7.00;;
48363;SDS011;34170;54.364;18.582;2024-03-08T07:08:47;11.52;;;7.53;;
48363;SDS011;34170;54.364;18.582;2024-03-08T07:11:16;13.07;;;7.38;;
48363;SDS011;34170;54.364;18.582;2024-03-08T07:13:46;13.45;;;7.78;;
48363;SDS011;34170;54.364;18.582;2024-03-08T07:16:13;13.00;;;7.68;;
48363;SDS011;34170;54.364;18.582;2024-03-08T07:18:41;14.02;;;7.38;;
48363;SDS011;34170;54.364;18.582;2024-03-08T07:21:11;12.50;;;5.75;;
48363;SDS011;34170;54.364;18.582;2024-03-08T07:23:39;10.65;;;5.85;;
48363;SDS011;34170;54.364;18.582;2024-03-08T07:26:36;8.18;;;5.20;;
48363;SDS011;34170;54.364;18.582;2024-03-08T07:29:05;9.07;;;4.97;;
48363;SDS011;34170;54.364;18.582;2024-03-08T07:31:33;9.30;;;4.75;;
48363;SDS011;34170;54.364;18.582;2024-03-08T07:34:20;7.47;;;4.00;;
48363;SDS011;34170;54.364;18.582;2024-03-08T07:36:47;6.68;;;3.67;;
48363;SDS011;34170;54.364;18.582;2024-03-08T07:39:18;6.97;;;3.65;;
48363;SDS011;34170;54.364;18.582;2024-03-08T07:41:46;7.10;;;4.43;;
48363;SDS011;34170;54.364;18.582;2024-03-08T07:44:15;6.72;;;3.60;;
48363;SDS011;34170;54.364;18.582;2024-03-08T07:46:42;6.60;;;4.10;;
48363;SDS011;34170;54.364;18.582;2024-03-08T07:49:10;6.10;;;4.10;;
48363;SDS011;34170;54.364;18.582;2024-03-08T07:51:38;7.30;;;4.40;;
48363;SDS011;34170;54.364;18.582;2024-03-08T07:54:06;9.23;;;4.60;;
48363;SDS011;34170;54.364;18.582;2024-03-08T07:56:36;7.40;;;4.20;;
48363;SDS011;34170;54.364;18.582;2024-03-08T07:59:05;7.38;;;4.10;;
48363;SDS011;34170;54.364;18.582;2024-03-08T08:01:32;6.65;;;4.20;;
48363;SDS011;34170;54.364;18.582;2024-03-08T08:04:01;7.20;;;3.90;;
48363;SDS011;34170;54.364;18.582;2024-03-08T08:06:28;6.90;;;4.15;;
48363;SDS011;34170;54.364;18.582;2024-03-08T08:08:59;7.95;;;4.55;;
48363;SDS011;34170;54.364;18.582;2024-03-08T08:11:27;8.50;;;4.70;;
48363;SDS011;34170;54.364;18.582;2024-03-08T08:13:56;8.60;;;5.05;;
48363;SDS011;34170;54.364;18.582;2024-03-08T08:16:23;8.98;;;5.57;;
48363;SDS011;34170;54.364;18.582;2024-03-08T08:18:53;7.97;;;5.05;;
48363;SDS011;34170;54.364;18.582;2024-03-08T08:21:21;8.93;;;5.00;;
48363;SDS011;34170;54.364;18.582;2024-03-08T08:23:49;11.07;;;5.28;;
48363;SDS011;34170;54.364;18.582;2024-03-08T08:26:17;9.13;;;5.50;;
48363;SDS011;34170;54.364;18.582;2024-03-08T08:28:44;8.63;;;5.63;;
48363;SDS011;34170;54.364;18.582;2024-03-08T08:31:13;10.18;;;5.88;;
48363;SDS011;34170;54.364;18.582;2024-03-08T08:33:41;13.52;;;6.82;;
48363;SDS011;34170;54.364;18.582;2024-03-08T08:36:08;9.02;;;6.28;;
48363;SDS011;34170;54.364;18.582;2024-03-08T08:38:37;10.20;;;5.93;;
48363;SDS011;34170;54.364;18.582;2024-03-08T08:41:05;11.50;;;6.13;;
48363;SDS011;34170;54.364;18.582;2024-03-08T08:43:33;15.57;;;6.03;;
48363;SDS011;34170;54.364;18.582;2024-03-08T08:46:02;10.68;;;6.30;;
48363;SDS011;34170;54.364;18.582;2024-03-08T08:48:30;12.93;;;6.95;;
48363;SDS011;34170;54.364;18.582;2024-03-08T08:50:57;11.15;;;6.85;;
48363;SDS011;34170;54.364;18.582;2024-03-08T08:53:25;12.77;;;6.60;;
48363;SDS011;34170;54.364;18.582;2024-03-08T08:55:53;10.98;;;6.45;;
48363;SDS011;34170;54.364;18.582;2024-03-08T08:58:20;9.05;;;6.30;;
48363;SDS011;34170;54.364;18.582;2024-03-08T09:00:49;11.57;;;6.47;;
48363;SDS011;34170;54.364;18.582;2024-03-08T09:03:17;10.82;;;7.38;;
48363;SDS011;34170;54.364;18.582;2024-03-08T09:05:45;13.45;;;8.38;;
48363;SDS011;34170;54.364;18.582;2024-03-08T09:08:12;15.93;;;8.20;;
48363;SDS011;34170;54.364;18.582;2024-03-08T09:10:40;14.80;;;7.90;;
48363;SDS011;34170;54.364;18.582;2024-03-08T09:13:08;12.50;;;8.68;;
48363;SDS011;34170;54.364;18.582;2024-03-08T09:15:44;12.10;;;7.57;;
48363;SDS011;34170;54.364;18.582;2024-03-08T09:18:12;17.65;;;9.70;;
48363;SDS011;34170;54.364;18.582;2024-03-08T09:20:40;14.45;;;9.35;;
48363;SDS011;34170;54.364;18.582;2024-03-08T09:23:08;15.85;;;9.88;;
48363;SDS011;34170;54.364;18.582;2024-03-08T09:25:36;16.30;;;9.75;;
48363;SDS011;34170;54.364;18.582;2024-03-08T09:28:05;14.52;;;9.02;;
48363;SDS011;34170;54.364;18.582;2024-03-08T09:30:32;13.60;;;8.95;;
48363;SDS011;34170;54.364;18.582;2024-03-08T09:33:02;16.33;;;9.30;;
48363;SDS011;34170;54.364;18.582;2024-03-08T09:35:30;14.20;;;9.13;;
48363;SDS011;34170;54.364;18.582;2024-03-08T09:37:58;13.27;;;8.80;;
48363;SDS011;34170;54.364;18.582;2024-03-08T09:40:25;14.75;;;9.45;;
48363;SDS011;34170;54.364;18.582;2024-03-08T09:42:55;15.73;;;9.60;;
48363;SDS011;34170;54.364;18.582;2024-03-08T09:45:22;19.65;;;9.57;;
48363;SDS011;34170;54.364;18.582;2024-03-08T09:47:52;12.88;;;8.73;;
48363;SDS011;34170;54.364;18.582;2024-03-08T09:50:21;14.13;;;9.07;;
48363;SDS011;34170;54.364;18.582;2024-03-08T09:52:49;16.00;;;9.60;;
48363;SDS011;34170;54.364;18.582;2024-03-08T09:55:17;19.27;;;10.13;;
48363;SDS011;34170;54.364;18.582;2024-03-08T09:57:51;16.08;;;9.82;;
48363;SDS011;34170;54.364;18.582;2024-03-08T10:00:47;15.93;;;9.50;;
48363;SDS011;34170;54.364;18.582;2024-03-08T10:03:15;13.82;;;8.50;;
48363;SDS011;34170;54.364;18.582;2024-03-08T10:05:43;16.48;;;9.48;;
48363;SDS011;34170;54.364;18.582;2024-03-08T10:08:12;14.93;;;8.65;;
48363;SDS011;34170;54.364;18.582;2024-03-08T10:10:40;15.20;;;8.52;;
48363;SDS011;34170;54.364;18.582;2024-03-08T10:13:09;14.45;;;8.98;;
48363;SDS011;34170;54.364;18.582;2024-03-08T10:15:37;16.67;;;8.02;;
48363;SDS011;34170;54.364;18.582;2024-03-08T10:18:07;14.60;;;9.18;;
48363;SDS011;34170;54.364;18.582;2024-03-08T10:20:35;17.35;;;9.38;;
48363;SDS011;34170;54.364;18.582;2024-03-08T10:23:03;13.50;;;7.97;;
48363;SDS011;34170;54.364;18.582;2024-03-08T10:25:37;12.57;;;8.15;;
48363;SDS011;34170;54.364;18.582;2024-03-08T10:28:06;14.38;;;8.18;;
48363;SDS011;34170;54.364;18.582;2024-03-08T10:30:34;12.88;;;7.90;;
48363;SDS011;34170;54.364;18.582;2024-03-08T10:33:01;14.73;;;8.27;;
48363;SDS011;34170;54.364;18.582;2024-03-08T10:35:32;13.43;;;8.23;;
48363;SDS011;34170;54.364;18.582;2024-03-08T10:38:00;12.68;;;7.65;;
48363;SDS011;34170;54.364;18.582;2024-03-08T10:40:35;15.68;;;7.88;;
48363;SDS011;34170;54.364;18.582;2024-03-08T10:43:07;15.18;;;8.20;;
48363;SDS011;34170;54.364;18.582;2024-03-08T10:45:40;13.85;;;6.68;;
48363;SDS011;34170;54.364;18.582;2024-03-08T10:48:23;15.47;;;6.97;;
48363;SDS011;34170;54.364;18.582;2024-03-08T10:50:55;10.80;;;6.35;;
48363;SDS011;34170;54.364;18.582;2024-03-08T10:53:28;12.23;;;6.28;;
48363;SDS011;34170;54.364;18.582;2024-03-08T10:55:57;12.95;;;6.20;;
48363;SDS011;34170;54.364;18.582;2024-03-08T10:58:26;12.93;;;6.55;;
48363;SDS011;34170;54.364;18.582;2024-03-08T11:00:54;12.98;;;6.53;;
48363;SDS011;34170;54.364;18.582;2024-03-08T11:06:07;30.75;;;7.70;;
48363;SDS011;34170;54.364;18.582;2024-03-08T11:08:36;17.27;;;7.22;;
48363;SDS011;34170;54.364;18.582;2024-03-08T11:11:05;10.07;;;5.97;;
48363;SDS011;34170;54.364;18.582;2024-03-08T11:14:00;17.33;;;6.93;;
48363;SDS011;34170;54.364;18.582;2024-03-08T11:19:05;13.52;;;6.25;;
48363;SDS011;34170;54.364;18.582;2024-03-08T11:22:13;13.57;;;6.40;;
48363;SDS011;34170;54.364;18.582;2024-03-08T11:24:48;12.02;;;5.78;;
48363;SDS011;34170;54.364;18.582;2024-03-08T11:27:16;11.38;;;5.72;;
48363;SDS011;34170;54.364;18.582;2024-03-08T11:29:44;11.55;;;5.45;;
48363;SDS011;34170;54.364;18.582;2024-03-08T11:32:12;13.73;;;6.40;;
48363;SDS011;34170;54.364;18.582;2024-03-08T11:34:50;16.70;;;5.93;;
48363;SDS011;34170;54.364;18.582;2024-03-08T11:37:18;11.52;;;6.22;;
48363;SDS011;34170;54.364;18.582;2024-03-08T11:42:17;13.63;;;6.20;;
48363;SDS011;34170;54.364;18.582;2024-03-08T11:44:45;15.57;;;6.88;;
48363;SDS011;34170;54.364;18.582;2024-03-08T11:47:15;16.25;;;6.30;;
48363;SDS011;34170;54.364;18.582;2024-03-08T11:49:44;10.25;;;6.05;;
48363;SDS011;34170;54.364;18.582;2024-03-08T11:52:15;12.00;;;6.00;;
48363;SDS011;34170;54.364;18.582;2024-03-08T11:54:54;13.52;;;6.57;;
48363;SDS011;34170;54.364;18.582;2024-03-08T11:57:25;13.63;;;6.53;;
48363;SDS011;34170;54.364;18.582;2024-03-08T11:59:54;11.35;;;5.93;;
48363;SDS011;34170;54.364;18.582;2024-03-08T12:02:24;11.35;;;6.15;;
48363;SDS011;34170;54.364;18.582;2024-03-08T12:04:59;12.18;;;5.70;;
48363;SDS011;34170;54.364;18.582;2024-03-08T12:07:28;12.80;;;5.97;;
48363;SDS011;34170;54.364;18.582;2024-03-08T12:10:18;12.52;;;5.65;;
48363;SDS011;34170;54.364;18.582;2024-03-08T12:12:49;15.23;;;5.20;;
48363;SDS011;34170;54.364;18.582;2024-03-08T12:15:24;14.85;;;6.13;;
48363;SDS011;34170;54.364;18.582;2024-03-08T12:17:53;13.20;;;7.13;;
48363;SDS011;34170;54.364;18.582;2024-03-08T12:20:24;17.63;;;7.30;;
48363;SDS011;34170;54.364;18.582;2024-03-08T12:22:53;16.92;;;7.55;;
48363;SDS011;34170;54.364;18.582;2024-03-08T12:25:27;16.23;;;8.02;;
48363;SDS011;34170;54.364;18.582;2024-03-08T12:28:07;13.93;;;6.43;;
48363;SDS011;34170;54.364;18.582;2024-03-08T12:30:50;12.07;;;6.40;;
48363;SDS011;34170;54.364;18.582;2024-03-08T12:33:24;11.50;;;6.15;;
48363;SDS011;34170;54.364;18.582;2024-03-08T12:35:52;12.32;;;6.95;;
48363;SDS011;34170;54.364;18.582;2024-03-08T12:38:22;18.02;;;6.80;;
48363;SDS011;34170;54.364;18.582;2024-03-08T12:41:02;15.02;;;6.40;;
48363;SDS011;34170;54.364;18.582;2024-03-08T12:43:31;13.07;;;6.97;;
48363;SDS011;34170;54.364;18.582;2024-03-08T12:46:01;15.65;;;6.50;;
48363;SDS011;34170;54.364;18.582;2024-03-08T12:48:29;12.52;;;6.38;;
48363;SDS011;34170;54.364;18.582;2024-03-08T12:51:02;12.02;;;7.05;;
48363;SDS011;34170;54.364;18.582;2024-03-08T12:53:30;11.38;;;6.30;;
48363;SDS011;34170;54.364;18.582;2024-03-08T12:55:58;12.07;;;6.82;;
48363;SDS011;34170;54.364;18.582;2024-03-08T12:58:25;13.27;;;6.55;;
48363;SDS011;34170;54.364;18.582;2024-03-08T13:00:53;11.68;;;6.00;;
48363;SDS011;34170;54.364;18.582;2024-03-08T13:03:22;10.90;;;5.57;;
48363;SDS011;34170;54.364;18.582;2024-03-08T13:05:50;13.52;;;5.72;;
48363;SDS011;34170;54.364;18.582;2024-03-08T13:08:17;12.27;;;6.07;;
48363;SDS011;34170;54.364;18.582;2024-03-08T13:10:45;12.23;;;5.88;;
48363;SDS011;34170;54.364;18.582;2024-03-08T13:13:13;11.75;;;5.70;;
48363;SDS011;34170;54.364;18.582;2024-03-08T13:15:45;11.82;;;5.65;;
48363;SDS011;34170;54.364;18.582;2024-03-08T13:18:12;14.77;;;4.63;;
48363;SDS011;34170;54.364;18.582;2024-03-08T13:20:40;8.73;;;4.22;;
48363;SDS011;34170;54.364;18.582;2024-03-08T13:23:14;7.15;;;3.55;;
48363;SDS011;34170;54.364;18.582;2024-03-08T13:25:42;7.97;;;4.00;;
48363;SDS011;34170;54.364;18.582;2024-03-08T13:28:09;7.57;;;3.70;;
48363;SDS011;34170;54.364;18.582;2024-03-08T13:30:38;5.80;;;3.38;;
48363;SDS011;34170;54.364;18.582;2024-03-08T13:33:05;7.50;;;3.45;;
48363;SDS011;34170;54.364;18.582;2024-03-08T13:35:34;9.40;;;3.35;;
48363;SDS011;34170;54.364;18.582;2024-03-08T13:38:02;9.65;;;3.92;;
48363;SDS011;34170;54.364;18.582;2024-03-08T13:40:32;7.93;;;3.35;;
48363;SDS011;34170;54.364;18.582;2024-03-08T13:42:59;7.78;;;3.08;;
48363;SDS011;34170;54.364;18.582;2024-03-08T13:45:28;7.35;;;2.80;;
48363;SDS011;34170;54.364;18.582;2024-03-08T13:47:56;7.80;;;3.20;;
48363;SDS011;34170;54.364;18.582;2024-03-08T13:50:24;5.30;;;2.75;;
48363;SDS011;34170;54.364;18.582;2024-03-08T13:52:53;8.73;;;3.05;;
48363;SDS011;34170;54.364;18.582;2024-03-08T13:55:23;5.75;;;2.70;;
48363;SDS011;34170;54.364;18.582;2024-03-08T13:57:54;9.98;;;2.60;;
48363;SDS011;34170;54.364;18.582;2024-03-08T14:00:25;6.38;;;2.40;;
48363;SDS011;34170;54.364;18.582;2024-03-08T14:02:55;5.75;;;3.28;;
48363;SDS011;34170;54.364;18.582;2024-03-08T14:05:23;6.20;;;2.67;;
48363;SDS011;34170;54.364;18.582;2024-03-08T14:07:50;4.28;;;2.10;;
48363;SDS011;34170;54.364;18.582;2024-03-08T14:10:21;5.93;;;2.30;;
48363;SDS011;34170;54.364;18.582;2024-03-08T14:12:50;3.92;;;2.20;;
48363;SDS011;34170;54.364;18.582;2024-03-08T14:15:18;7.80;;;2.63;;
48363;SDS011;34170;54.364;18.582;2024-03-08T14:17:56;3.60;;;2.13;;
48363;SDS011;34170;54.364;18.582;2024-03-08T14:20:25;6.15;;;2.50;;
48363;SDS011;34170;54.364;18.582;2024-03-08T14:22:55;9.57;;;2.42;;
48363;SDS011;34170;54.364;18.582;2024-03-08T14:25:24;4.40;;;2.30;;
48363;SDS011;34170;54.364;18.582;2024-03-08T14:27:52;4.05;;;2.30;;
48363;SDS011;34170;54.364;18.582;2024-03-08T14:30:21;4.63;;;1.80;;
48363;SDS011;34170;54.364;18.582;2024-03-08T14:33:05;4.40;;;1.85;;
48363;SDS011;34170;54.364;18.582;2024-03-08T14:35:40;4.03;;;1.70;;
48363;SDS011;34170;54.364;18.582;2024-03-08T14:38:08;5.78;;;2.10;;
48363;SDS011;34170;54.364;18.582;2024-03-08T14:40:37;6.70;;;2.03;;